SARC/CNQ METAR and TAF weather

Enter ICAO airport designator
Station Type Date Time Source
SARC METAR 2020/10/22 00:00 UTC NOAA

SARC 220000Z 14008KT 7000 NSC 29/20 Q1013


Station Type Date Time Source
SARC Decoded METAR 2020/10/22 00:00 UTC NOAA

Corrientes Aero., Argentina (SARC) 27-27S 058-46W 62M
Oct 21, 2020 - 08:00 PM EDT / 2020.10.22 0000 UTC
Wind: from the SE (140 degrees) at 9 MPH (8 KT):0
Visibility: 4 mile(s):0
Temperature: 84 F (29 C)
Dew Point: 68 F (20 C)
Relative Humidity: 58%
Pressure (altimeter): 29.91 in. Hg (1013 hPa)
ob: SARC 220000Z 14008KT 7000 NSC 29/20 Q1013
cycle: 0

Station Type Date Time Source
SARC TAF 2020/07/23 10:23 UTC NOAA

TAF
AMD SARC 230915Z 2310/2406 20005KT 6000 OVC018 TX25/2319Z TN13/2410Z

Example: see airport list